Time;durP1;ratioP1;P1;durP2;ratioP2;P2;SDS_P1;SDS_P2;PMS_P1;PMS_P2;Temp;Humidity;BMP_temperature;BMP_pressure;BME280_temperature;BME280_humidity;BME280_pressure;Samples;Min_cycle;Max_cycle;Signal;HPM_P1;HPM_P2
2021/03/05 00:01:29;;;;;;;10.27;6.60;;;;;;;;;;5012968;28;20217;-73
2021/03/05 00:04:33;;;;;;;11.73;6.90;;;;;;;;;;5013701;28;20703;-73
2021/03/05 00:07:38;;;;;;;9.87;5.97;;;;;;;;;;5013477;28;20177;-73
2021/03/05 00:10:45;;;;;;;8.47;6.30;;;;;;;;;;5013602;28;20583;-73
2021/03/05 00:13:49;;;;;;;8.93;5.77;;;;;;;;;;5013083;28;20197;-73
2021/03/05 00:16:53;;;;;;;9.53;5.93;;;;;;;;;;5013974;28;20182;-73
2021/03/05 00:19:58;;;;;;;9.77;5.60;;;;;;;;;;5012772;28;20213;-73
2021/03/05 00:23:02;;;;;;;8.43;5.37;;;;;;;;;;5013205;28;20213;-73
2021/03/05 00:26:06;;;;;;;7.27;5.57;;;;;;;;;;5013483;28;20183;-73
2021/03/05 00:29:10;;;;;;;9.37;5.83;;;;;;;;;;5013726;28;20182;-73
2021/03/05 00:32:15;;;;;;;8.27;5.80;;;;;;;;;;5013531;28;20177;-73
2021/03/05 00:35:20;;;;;;;7.83;5.53;;;;;;;;;;5013926;28;20170;-73
2021/03/05 00:38:25;;;;;;;6.60;5.30;;;;;;;;;;5013595;28;20525;-73
2021/03/05 00:41:28;;;;;;;9.33;6.07;;;;;;;;;;5013523;28;20217;-73
2021/03/05 00:44:32;;;;;;;9.07;5.67;;;;;;;;;;5012695;28;20664;-73
2021/03/05 00:47:37;;;;;;;9.67;5.90;;;;;;;;;;5013540;28;20177;-73
2021/03/05 00:50:42;;;;;;;10.33;5.97;;;;;;;;;;5012513;28;20595;-73
2021/03/05 00:53:49;;;;;;;8.63;5.50;;;;;;;;;;5001677;28;20186;-73
2021/03/05 00:56:55;;;;;;;7.90;5.63;;;;;;;;;;5001722;28;20182;-73
2021/03/05 00:59:59;;;;;;;10.03;6.60;;;;;;;;;;5012306;28;20251;-73
2021/03/05 01:03:03;;;;;;;10.07;5.90;;;;;;;;;;5001046;28;20517;-73
2021/03/05 01:06:08;;;;;;;6.40;5.10;;;;;;;;;;5012562;28;20181;-73
2021/03/05 01:09:12;;;;;;;8.57;5.87;;;;;;;;;;5012016;28;20201;-73
2021/03/05 01:12:16;;;;;;;8.77;5.70;;;;;;;;;;5013046;28;20185;-72
2021/03/05 01:15:20;;;;;;;10.97;5.47;;;;;;;;;;5013012;28;20174;-73
2021/03/05 01:18:25;;;;;;;9.63;6.03;;;;;;;;;;5000959;28;20205;-73
2021/03/05 01:21:28;;;;;;;11.00;5.90;;;;;;;;;;5012834;28;20216;-73
2021/03/05 01:24:33;;;;;;;9.20;6.00;;;;;;;;;;5012822;28;20217;-73
2021/03/05 01:27:37;;;;;;;9.17;6.20;;;;;;;;;;5012910;28;20178;-73
2021/03/05 01:30:41;;;;;;;9.70;6.47;;;;;;;;;;5014292;28;20227;-73
2021/03/05 01:33:45;;;;;;;8.63;6.37;;;;;;;;;;5016683;28;20198;-73
2021/03/05 01:36:50;;;;;;;11.37;6.50;;;;;;;;;;5016708;28;20197;-73
2021/03/05 01:39:54;;;;;;;7.60;6.00;;;;;;;;;;5016443;28;20217;-73
2021/03/05 01:42:58;;;;;;;8.40;6.17;;;;;;;;;;5016350;28;20189;-73
2021/03/05 01:46:02;;;;;;;10.43;6.40;;;;;;;;;;5016561;28;20177;-73
2021/03/05 01:49:07;;;;;;;7.97;6.23;;;;;;;;;;5016236;28;20178;-73
2021/03/05 01:52:12;;;;;;;8.27;5.97;;;;;;;;;;5016447;28;20177;-73
2021/03/05 01:55:17;;;;;;;6.90;5.40;;;;;;;;;;5015318;28;20197;-73
2021/03/05 01:58:22;;;;;;;6.93;5.63;;;;;;;;;;5016085;28;20186;-73
2021/03/05 02:01:27;;;;;;;8.50;5.73;;;;;;;;;;5016263;28;20568;-73
2021/03/05 02:04:34;;;;;;;7.33;5.50;;;;;;;;;;5015146;28;20211;-73
2021/03/05 02:07:38;;;;;;;7.03;5.30;;;;;;;;;;5015034;28;20193;-73
2021/03/05 02:10:42;;;;;;;7.47;5.77;;;;;;;;;;5015833;28;20224;-73
2021/03/05 02:13:47;;;;;;;7.60;5.67;;;;;;;;;;5015678;28;20178;-73
2021/03/05 02:17:13;;;;;;;7.10;5.57;;;;;;;;;;5015645;28;20181;-73
2021/03/05 02:20:48;;;;;;;7.43;5.10;;;;;;;;;;5015671;28;20213;-73
2021/03/05 02:24:17;;;;;;;7.67;5.23;;;;;;;;;;5014733;28;20202;-73
2021/03/05 02:27:51;;;;;;;8.73;5.33;;;;;;;;;;5015722;28;20540;-73
2021/03/05 02:31:24;;;;;;;9.37;4.93;;;;;;;;;;5015310;28;20209;-73
2021/03/05 02:34:33;;;;;;;7.87;5.00;;;;;;;;;;5021365;28;20178;-73
2021/03/05 02:37:40;;;;;;;8.77;5.47;;;;;;;;;;5014873;28;20190;-73
2021/03/05 02:40:50;;;;;;;7.37;5.67;;;;;;;;;;5015910;28;20672;-73
2021/03/05 02:43:56;;;;;;;7.53;5.73;;;;;;;;;;5015350;28;20205;-73
2021/03/05 02:47:04;;;;;;;8.37;5.63;;;;;;;;;;5014810;28;20177;-73
2021/03/05 02:50:09;;;;;;;9.10;6.27;;;;;;;;;;5014957;28;20703;-73
2021/03/05 02:53:15;;;;;;;7.87;6.27;;;;;;;;;;5015181;28;20201;-73
2021/03/05 02:56:20;;;;;;;10.83;7.07;;;;;;;;;;5015158;28;20198;-73
2021/03/05 02:59:26;;;;;;;9.30;6.90;;;;;;;;;;5003000;28;20181;-73
2021/03/05 03:02:31;;;;;;;9.00;6.37;;;;;;;;;;5015170;28;20186;-73
2021/03/05 03:05:36;;;;;;;8.27;6.60;;;;;;;;;;5015602;28;20210;-73
2021/03/05 03:08:43;;;;;;;8.80;6.00;;;;;;;;;;5014728;28;20244;-73
2021/03/05 03:11:48;;;;;;;9.47;6.67;;;;;;;;;;5014461;28;20205;-73
2021/03/05 03:14:52;;;;;;;9.00;6.37;;;;;;;;;;4995331;28;20178;-73
2021/03/05 03:17:57;;;;;;;10.63;6.90;;;;;;;;;;4994251;28;20179;-73
2021/03/05 03:21:03;;;;;;;9.83;6.43;;;;;;;;;;5008060;28;20723;-73
2021/03/05 03:24:08;;;;;;;9.10;6.00;;;;;;;;;;5014757;28;20557;-73
2021/03/05 03:27:12;;;;;;;9.83;6.83;;;;;;;;;;5014660;28;20197;-73
2021/03/05 03:30:18;;;;;;;8.80;6.90;;;;;;;;;;5014343;28;20217;-73
2021/03/05 03:33:23;;;;;;;10.83;7.20;;;;;;;;;;5014436;28;20190;-73
2021/03/05 03:36:27;;;;;;;9.07;6.80;;;;;;;;;;5014250;28;20170;-73
2021/03/05 03:39:32;;;;;;;8.67;6.87;;;;;;;;;;5013425;28;20548;-73
2021/03/05 03:42:37;;;;;;;10.67;7.93;;;;;;;;;;4994041;28;20182;-73
2021/03/05 03:45:41;;;;;;;11.57;7.27;;;;;;;;;;4994425;28;20206;-72
2021/03/05 03:48:51;;;;;;;10.27;7.37;;;;;;;;;;4994385;28;20193;-72
2021/03/05 03:52:24;;;;;;;10.50;7.60;;;;;;;;;;4994734;28;20186;-72
2021/03/05 03:55:28;;;;;;;13.30;8.33;;;;;;;;;;5009108;28;20205;-72
2021/03/05 03:58:33;;;;;;;11.07;7.90;;;;;;;;;;5013891;28;20185;-72
2021/03/05 04:01:39;;;;;;;12.60;8.50;;;;;;;;;;5013801;28;20225;-72
2021/03/05 04:04:46;;;;;;;11.83;8.10;;;;;;;;;;5012911;28;20209;-72
2021/03/05 04:07:51;;;;;;;11.00;7.97;;;;;;;;;;5014055;28;20181;-72
2021/03/05 04:10:55;;;;;;;11.80;8.83;;;;;;;;;;5029669;22;20233;-70
2021/03/05 04:14:00;;;;;;;13.97;9.53;;;;;;;;;;4975126;28;20543;-70
2021/03/05 04:17:06;;;;;;;13.83;9.17;;;;;;;;;;4994026;28;20186;-70
2021/03/05 04:20:14;;;;;;;13.10;9.23;;;;;;;;;;4994100;28;20218;-70
2021/03/05 04:23:18;;;;;;;13.27;8.97;;;;;;;;;;4993901;28;20195;-71
2021/03/05 04:26:22;;;;;;;13.13;9.37;;;;;;;;;;4994064;28;20542;-71
2021/03/05 04:29:26;;;;;;;12.47;8.60;;;;;;;;;;4994323;28;20637;-71
2021/03/05 04:32:30;;;;;;;11.73;8.43;;;;;;;;;;4993287;28;20186;-71
2021/03/05 04:35:41;;;;;;;12.20;8.90;;;;;;;;;;4993362;28;20186;-70
2021/03/05 04:38:52;;;;;;;12.63;8.70;;;;;;;;;;4962113;28;20198;-69
2021/03/05 04:41:57;;;;;;;12.37;8.67;;;;;;;;;;4993946;28;20545;-70
2021/03/05 04:45:02;;;;;;;10.70;8.50;;;;;;;;;;4993259;28;20218;-69
2021/03/05 04:48:07;;;;;;;12.13;9.27;;;;;;;;;;4974267;28;20634;-70
2021/03/05 04:51:11;;;;;;;10.30;7.80;;;;;;;;;;4987216;28;20221;-70
2021/03/05 04:54:15;;;;;;;12.63;7.90;;;;;;;;;;4993741;28;20202;-70
2021/03/05 04:57:20;;;;;;;8.37;6.80;;;;;;;;;;4979226;28;20585;-69
2021/03/05 05:00:24;;;;;;;8.67;7.40;;;;;;;;;;4993443;28;20653;-69
2021/03/05 05:03:29;;;;;;;9.47;6.40;;;;;;;;;;4993208;28;20606;-69
2021/03/05 05:06:33;;;;;;;9.53;6.77;;;;;;;;;;4996812;28;20648;-69
2021/03/05 05:09:37;;;;;;;9.23;6.60;;;;;;;;;;4997257;28;20656;-69
2021/03/05 05:12:42;;;;;;;10.23;7.43;;;;;;;;;;4984760;28;20632;-69
2021/03/05 05:15:46;;;;;;;9.83;7.20;;;;;;;;;;4996904;28;20186;-69
2021/03/05 05:18:50;;;;;;;9.03;7.33;;;;;;;;;;4977644;28;20558;-70
2021/03/05 05:21:54;;;;;;;9.17;7.50;;;;;;;;;;4977951;28;20538;-70
2021/03/05 05:24:59;;;;;;;8.73;7.37;;;;;;;;;;4990223;28;20632;-69
2021/03/05 05:28:03;;;;;;;18.43;11.97;;;;;;;;;;4997283;28;20554;-70
2021/03/05 05:31:08;;;;;;;13.77;10.23;;;;;;;;;;4996906;28;20621;-70
2021/03/05 05:34:12;;;;;;;12.57;9.03;;;;;;;;;;4984939;28;21126;-70
2021/03/05 05:37:16;;;;;;;10.23;7.87;;;;;;;;;;4997171;28;20534;-70
2021/03/05 05:40:20;;;;;;;11.07;7.30;;;;;;;;;;4996743;28;20628;-70
2021/03/05 05:43:30;;;;;;;9.40;6.93;;;;;;;;;;4996923;28;20557;-70
2021/03/05 05:46:35;;;;;;;12.40;8.63;;;;;;;;;;4984758;28;20605;-69
2021/03/05 05:49:42;;;;;;;9.77;7.67;;;;;;;;;;4984846;28;20977;-70
2021/03/05 05:52:50;;;;;;;10.77;8.07;;;;;;;;;;4996156;28;20597;-69
2021/03/05 05:55:54;;;;;;;11.00;8.37;;;;;;;;;;4982979;28;20573;-70
2021/03/05 05:58:59;;;;;;;11.30;8.33;;;;;;;;;;4996643;28;20589;-70
2021/03/05 06:02:05;;;;;;;12.23;7.97;;;;;;;;;;4995643;28;20553;-70
2021/03/05 06:05:13;;;;;;;10.67;8.80;;;;;;;;;;4996611;28;20600;-70
2021/03/05 06:08:19;;;;;;;11.13;8.80;;;;;;;;;;4996611;28;21091;-70
2021/03/05 06:11:29;;;;;;;23.07;13.23;;;;;;;;;;4996205;28;20648;-71
2021/03/05 06:14:34;;;;;;;14.33;10.30;;;;;;;;;;4976176;28;20598;-70
2021/03/05 06:17:46;;;;;;;8.23;6.80;;;;;;;;;;4963591;28;20558;-70
2021/03/05 06:20:50;;;;;;;11.77;8.00;;;;;;;;;;4976720;28;20622;-71
2021/03/05 06:23:59;;;;;;;8.47;6.87;;;;;;;;;;4964719;28;20601;-70
2021/03/05 06:27:03;;;;;;;10.17;7.70;;;;;;;;;;4964929;28;21069;-71
2021/03/05 06:30:08;;;;;;;15.70;8.87;;;;;;;;;;4976668;28;20633;-71
2021/03/05 06:33:23;;;;;;;38.37;17.13;;;;;;;;;;4976667;28;20555;-71
2021/03/05 06:36:28;;;;;;;18.40;8.63;;;;;;;;;;4976312;28;20598;-70
2021/03/05 06:39:34;;;;;;;11.87;8.50;;;;;;;;;;4964396;28;20601;-70
2021/03/05 06:42:55;;;;;;;15.40;9.30;;;;;;;;;;4976139;28;20605;-70
2021/03/05 06:46:00;;;;;;;10.83;7.90;;;;;;;;;;4976190;28;20590;-71
2021/03/05 06:49:12;;;;;;;8.30;6.90;;;;;;;;;;4975112;28;20547;-70
2021/03/05 06:52:20;;;;;;;9.20;6.83;;;;;;;;;;4976258;28;20546;-70
2021/03/05 06:55:24;;;;;;;8.67;6.67;;;;;;;;;;4975887;28;20910;-70
2021/03/05 06:58:28;;;;;;;9.33;7.57;;;;;;;;;;4976115;28;20547;-70
2021/03/05 07:01:45;;;;;;;10.17;7.57;;;;;;;;;;4975985;28;20622;-71
2021/03/05 07:04:50;;;;;;;8.90;7.23;;;;;;;;;;4975654;28;20602;-70
2021/03/05 07:07:55;;;;;;;9.17;7.63;;;;;;;;;;4975839;28;20555;-70
2021/03/05 07:10:58;;;;;;;12.13;9.40;;;;;;;;;;4975542;28;20989;-71
2021/03/05 07:14:04;;;;;;;39.63;22.23;;;;;;;;;;4964003;28;20538;-70
2021/03/05 07:17:10;;;;;;;47.40;25.07;;;;;;;;;;4975574;28;20561;-70
2021/03/05 07:20:15;;;;;;;34.13;21.73;;;;;;;;;;4975753;28;20626;-70
2021/03/05 07:23:19;;;;;;;13.73;12.20;;;;;;;;;;4975644;28;20547;-70
2021/03/05 07:26:23;;;;;;;11.03;8.53;;;;;;;;;;4963651;28;20594;-70
2021/03/05 07:29:45;;;;;;;11.00;7.63;;;;;;;;;;4975275;28;20543;-70
2021/03/05 07:32:54;;;;;;;7.87;6.60;;;;;;;;;;4975337;28;20555;-70
2021/03/05 07:36:02;;;;;;;9.33;7.10;;;;;;;;;;4963587;28;21139;-70
2021/03/05 07:39:07;;;;;;;8.87;7.63;;;;;;;;;;4975354;28;20563;-70
2021/03/05 07:42:12;;;;;;;12.40;8.03;;;;;;;;;;4975383;28;20543;-70
2021/03/05 07:45:24;;;;;;;11.17;8.17;;;;;;;;;;4963317;28;20935;-70
2021/03/05 07:48:28;;;;;;;10.43;8.20;;;;;;;;;;4975199;28;20562;-70
2021/03/05 07:51:34;;;;;;;11.00;8.33;;;;;;;;;;4974914;28;20618;-70
2021/03/05 07:54:42;;;;;;;11.23;8.83;;;;;;;;;;4975149;28;20550;-70
2021/03/05 07:57:47;;;;;;;9.93;7.00;;;;;;;;;;4974105;28;20535;-70
2021/03/05 08:00:52;;;;;;;13.53;8.13;;;;;;;;;;4974227;28;20629;-70
2021/03/05 08:03:57;;;;;;;11.53;7.37;;;;;;;;;;4974836;28;20605;-70
2021/03/05 08:07:08;;;;;;;10.17;7.47;;;;;;;;;;4974669;28;21155;-70
2021/03/05 08:10:35;;;;;;;9.43;6.97;;;;;;;;;;4974989;28;20626;-70
2021/03/05 08:13:48;;;;;;;9.73;6.80;;;;;;;;;;4962844;28;20602;-70
2021/03/05 08:16:53;;;;;;;11.03;5.43;;;;;;;;;;4962830;28;21077;-70
2021/03/05 08:19:57;;;;;;;9.93;5.87;;;;;;;;;;4962489;28;21000;-70
2021/03/05 08:23:02;;;;;;;14.97;7.27;;;;;;;;;;4974336;28;20597;-70
2021/03/05 08:26:06;;;;;;;36.70;16.90;;;;;;;;;;4974560;28;20595;-70
2021/03/05 08:30:09;;;;;;;118.27;45.30;;;;;;;;;;4974597;28;20550;-70
2021/03/05 08:33:27;;;;;;;29.97;14.10;;;;;;;;;;4952898;29;20587;-69
2021/03/05 08:36:46;;;;;;;17.27;8.73;;;;;;;;;;4954894;28;20559;-70
2021/03/05 08:39:50;;;;;;;15.17;7.70;;;;;;;;;;4973426;28;20622;-70
2021/03/05 08:42:59;;;;;;;13.17;6.80;;;;;;;;;;4974156;28;20547;-70
2021/03/05 08:46:06;;;;;;;15.03;7.43;;;;;;;;;;4974398;28;20587;-70
2021/03/05 08:49:10;;;;;;;12.57;6.50;;;;;;;;;;4974231;28;20610;-69
2021/03/05 08:52:15;;;;;;;13.87;8.00;;;;;;;;;;4989508;28;21151;-69
2021/03/05 08:55:21;;;;;;;13.07;7.53;;;;;;;;;;4993492;28;20561;-70
2021/03/05 08:58:25;;;;;;;14.50;6.50;;;;;;;;;;4993942;28;20870;-70
2021/03/05 09:01:47;;;;;;;13.57;6.50;;;;;;;;;;4993570;28;20629;-69
2021/03/05 09:04:51;;;;;;;10.13;6.50;;;;;;;;;;4993401;28;20538;-70
2021/03/05 09:07:56;;;;;;;12.77;6.80;;;;;;;;;;4993616;28;20534;-70
2021/03/05 09:11:01;;;;;;;11.27;6.03;;;;;;;;;;4993295;28;20977;-70
2021/03/05 09:14:23;;;;;;;11.93;6.10;;;;;;;;;;4993581;28;20542;-70
2021/03/05 09:17:28;;;;;;;9.33;6.10;;;;;;;;;;4993404;28;20550;-69
2021/03/05 09:20:40;;;;;;;10.70;6.10;;;;;;;;;;4993389;28;20965;-70
2021/03/05 09:23:45;;;;;;;10.83;6.17;;;;;;;;;;4993201;28;20558;-69
2021/03/05 09:26:49;;;;;;;10.23;5.93;;;;;;;;;;4993365;28;20941;-69
2021/03/05 09:29:54;;;;;;;10.80;6.20;;;;;;;;;;4993045;28;20625;-70
2021/03/05 09:32:59;;;;;;;11.93;7.03;;;;;;;;;;4993089;28;20558;-70
2021/03/05 09:36:24;;;;;;;10.20;5.23;;;;;;;;;;4993679;28;20538;-70
2021/03/05 09:39:29;;;;;;;10.90;6.27;;;;;;;;;;4993121;28;20902;-70
2021/03/05 09:42:54;;;;;;;12.13;6.60;;;;;;;;;;4992997;28;20882;-70
2021/03/05 09:45:58;;;;;;;11.53;5.87;;;;;;;;;;4993225;28;20541;-70
2021/03/05 09:49:26;;;;;;;10.53;5.90;;;;;;;;;;4968159;28;20610;-69
2021/03/05 09:52:30;;;;;;;11.83;5.77;;;;;;;;;;4994922;28;21119;-69
2021/03/05 09:55:34;;;;;;;8.97;5.37;;;;;;;;;;4984491;28;20553;-70
2021/03/05 09:58:51;;;;;;;10.67;5.93;;;;;;;;;;4996817;28;20888;-70
2021/03/05 10:01:58;;;;;;;10.87;5.63;;;;;;;;;;4984932;28;20546;-70
2021/03/05 10:05:03;;;;;;;10.50;5.90;;;;;;;;;;4993800;28;20605;-69
2021/03/05 10:08:19;;;;;;;10.23;6.37;;;;;;;;;;4977072;28;20215;-70
2021/03/05 10:11:50;;;;;;;10.87;6.80;;;;;;;;;;5002413;22;20660;-88
2021/03/05 10:15:03;;;;;;;10.50;6.03;;;;;;;;;;4984620;28;20620;-88
2021/03/05 10:18:10;;;;;;;10.70;6.03;;;;;;;;;;4984710;28;20206;-88
2021/03/05 10:21:17;;;;;;;9.97;6.20;;;;;;;;;;4974132;28;20509;-88
2021/03/05 10:24:25;;;;;;;11.30;5.97;;;;;;;;;;4984639;28;20209;-88
2021/03/05 10:27:40;;;;;;;10.80;5.97;;;;;;;;;;4995387;28;20225;-90
2021/03/05 10:30:50;;;;;;;9.93;5.87;;;;;;;;;;4973870;28;20186;-89
2021/03/05 10:33:54;;;;;;;11.63;6.33;;;;;;;;;;4995472;28;20665;-90
2021/03/05 10:37:03;;;;;;;10.50;6.27;;;;;;;;;;4973635;28;20652;-89
2021/03/05 10:40:09;;;;;;;10.53;6.13;;;;;;;;;;4995666;28;20186;-89
2021/03/05 10:43:13;;;;;;;10.50;6.00;;;;;;;;;;4995640;28;20218;-89
2021/03/05 10:46:18;;;;;;;8.47;4.90;;;;;;;;;;4972755;28;20194;-89
2021/03/05 10:49:22;;;;;;;9.73;5.73;;;;;;;;;;4973411;28;21079;-89
2021/03/05 10:52:27;;;;;;;8.13;5.40;;;;;;;;;;4984227;28;21207;-89
2021/03/05 10:55:31;;;;;;;10.13;5.50;;;;;;;;;;4984192;28;20206;-89
2021/03/05 10:58:35;;;;;;;9.93;5.10;;;;;;;;;;4983791;28;20194;-89
2021/03/05 11:01:39;;;;;;;8.83;5.20;;;;;;;;;;4973015;28;20214;-89
2021/03/05 11:04:43;;;;;;;7.97;4.70;;;;;;;;;;4972967;28;20182;-89
2021/03/05 11:07:47;;;;;;;9.13;5.53;;;;;;;;;;4983706;28;20550;-89
2021/03/05 11:10:51;;;;;;;14.30;8.13;;;;;;;;;;4984042;28;20182;-88
2021/03/05 11:13:56;;;;;;;23.73;14.00;;;;;;;;;;4972983;28;20629;-89
2021/03/05 11:17:00;;;;;;;14.80;8.93;;;;;;;;;;4973118;28;20178;-89
2021/03/05 11:20:05;;;;;;;10.77;6.87;;;;;;;;;;4983694;28;20178;-89
2021/03/05 11:23:10;;;;;;;8.17;4.97;;;;;;;;;;4972721;28;20242;-89
2021/03/05 11:26:14;;;;;;;8.77;5.73;;;;;;;;;;4972668;28;20182;-88
2021/03/05 11:29:18;;;;;;;6.73;4.37;;;;;;;;;;4983529;28;20197;-89
2021/03/05 11:32:22;;;;;;;9.10;5.67;;;;;;;;;;4972108;28;20217;-88
2021/03/05 11:35:26;;;;;;;7.70;4.93;;;;;;;;;;4983601;28;20174;-89
2021/03/05 11:38:31;;;;;;;11.00;6.67;;;;;;;;;;4972388;28;20190;-88
2021/03/05 11:41:35;;;;;;;8.53;4.60;;;;;;;;;;4983398;28;20538;-89
2021/03/05 11:44:39;;;;;;;9.53;5.90;;;;;;;;;;4972366;28;20178;-88
2021/03/05 11:47:43;;;;;;;10.83;5.37;;;;;;;;;;4983606;28;20206;-89
2021/03/05 11:50:48;;;;;;;9.90;5.73;;;;;;;;;;4983254;28;20186;-90
2021/03/05 11:53:52;;;;;;;9.47;5.70;;;;;;;;;;4972149;28;20190;-89
2021/03/05 11:56:56;;;;;;;7.97;4.97;;;;;;;;;;4972060;28;20174;-89
2021/03/05 12:00:01;;;;;;;8.73;5.07;;;;;;;;;;4972143;28;20641;-89
2021/03/05 12:03:05;;;;;;;9.63;5.43;;;;;;;;;;4982905;28;20226;-88
2021/03/05 12:06:09;;;;;;;7.07;4.40;;;;;;;;;;4982826;28;20198;-89
2021/03/05 12:09:15;;;;;;;14.93;9.27;;;;;;;;;;4998234;28;20190;-89
2021/03/05 12:12:19;;;;;;;8.83;5.27;;;;;;;;;;5001425;28;20225;-89
2021/03/05 12:15:23;;;;;;;8.63;5.27;;;;;;;;;;4992969;28;20625;-89
2021/03/05 12:18:27;;;;;;;11.17;5.03;;;;;;;;;;4982980;28;20182;-89
2021/03/05 12:21:32;;;;;;;11.80;6.50;;;;;;;;;;4971660;28;20189;-88
2021/03/05 12:24:36;;;;;;;8.27;5.10;;;;;;;;;;4983119;28;20178;-88
2021/03/05 12:27:41;;;;;;;7.70;5.10;;;;;;;;;;4983027;28;20210;-88
2021/03/05 12:30:46;;;;;;;8.67;4.90;;;;;;;;;;4982698;28;20186;-89
2021/03/05 12:33:50;;;;;;;9.03;4.77;;;;;;;;;;4982791;28;20174;-89
2021/03/05 12:36:54;;;;;;;10.07;4.73;;;;;;;;;;4982561;28;20181;-88
2021/03/05 12:39:58;;;;;;;6.87;4.50;;;;;;;;;;4993590;28;20178;-89
2021/03/05 12:43:03;;;;;;;6.87;4.33;;;;;;;;;;4982394;28;20561;-88
2021/03/05 12:46:08;;;;;;;8.93;5.13;;;;;;;;;;4982851;28;20178;-88
2021/03/05 12:49:12;;;;;;;8.57;5.47;;;;;;;;;;4982583;28;20538;-89
2021/03/05 12:52:19;;;;;;;10.03;5.40;;;;;;;;;;4976943;28;20229;-89
2021/03/05 12:55:23;;;;;;;8.33;5.23;;;;;;;;;;4971437;28;20633;-89
2021/03/05 12:58:27;;;;;;;8.37;5.57;;;;;;;;;;4962972;28;20179;-89
2021/03/05 13:01:31;;;;;;;11.63;6.47;;;;;;;;;;4951750;28;20183;-89
2021/03/05 13:04:37;;;;;;;8.57;5.70;;;;;;;;;;4951760;28;20202;-88
2021/03/05 13:07:42;;;;;;;9.87;6.23;;;;;;;;;;4962649;28;20210;-89
2021/03/05 13:10:46;;;;;;;17.73;12.50;;;;;;;;;;4962805;28;20198;-89
2021/03/05 13:13:50;;;;;;;9.53;6.47;;;;;;;;;;4962639;28;20186;-88
2021/03/05 13:16:54;;;;;;;13.40;8.23;;;;;;;;;;4951695;28;20202;-89
2021/03/05 13:19:59;;;;;;;11.17;7.17;;;;;;;;;;4962707;28;20179;-88
2021/03/05 13:23:04;;;;;;;10.93;6.60;;;;;;;;;;4962881;28;20210;-89
2021/03/05 13:26:13;;;;;;;12.50;7.17;;;;;;;;;;4963993;28;20199;-89
2021/03/05 13:29:17;;;;;;;13.10;7.80;;;;;;;;;;4966608;28;20206;-89
2021/03/05 13:32:21;;;;;;;11.37;6.83;;;;;;;;;;4955533;28;20574;-89
2021/03/05 13:35:30;;;;;;;22.03;11.43;;;;;;;;;;4955183;28;20198;-89
2021/03/05 13:38:34;;;;;;;20.33;11.43;;;;;;;;;;4966366;28;20197;-89
2021/03/05 13:41:38;;;;;;;11.03;6.77;;;;;;;;;;4955218;28;20222;-89
2021/03/05 13:44:42;;;;;;;9.70;5.97;;;;;;;;;;4965969;28;20539;-89
2021/03/05 13:47:47;;;;;;;10.17;6.20;;;;;;;;;;4954828;28;20682;-89
2021/03/05 13:50:51;;;;;;;9.00;5.90;;;;;;;;;;4966261;28;20183;-89
2021/03/05 13:53:55;;;;;;;8.53;5.10;;;;;;;;;;4966299;28;20182;-89
2021/03/05 13:57:00;;;;;;;9.77;5.47;;;;;;;;;;4966755;28;20187;-89
2021/03/05 14:00:05;;;;;;;7.33;4.93;;;;;;;;;;4965904;28;20175;-89
2021/03/05 14:03:10;;;;;;;8.13;4.97;;;;;;;;;;4965609;28;20617;-89
2021/03/05 14:06:14;;;;;;;8.27;5.03;;;;;;;;;;4965849;28;20547;-89
2021/03/05 14:09:19;;;;;;;7.90;4.90;;;;;;;;;;4965857;28;20598;-89
2021/03/05 14:12:23;;;;;;;8.93;5.37;;;;;;;;;;4954408;28;20973;-88
2021/03/05 14:15:37;;;;;;;11.87;5.87;;;;;;;;;;4957291;28;20586;-89
2021/03/05 14:18:41;;;;;;;16.67;8.27;;;;;;;;;;4977328;28;20550;-89
2021/03/05 14:21:45;;;;;;;14.00;7.87;;;;;;;;;;4954436;28;20614;-89
2021/03/05 14:24:49;;;;;;;11.43;6.30;;;;;;;;;;4965609;28;20550;-89
2021/03/05 14:27:54;;;;;;;10.13;5.47;;;;;;;;;;4954452;28;21152;-88
2021/03/05 14:30:58;;;;;;;9.13;4.83;;;;;;;;;;4954023;28;20594;-88
2021/03/05 14:34:02;;;;;;;9.17;5.10;;;;;;;;;;4954233;28;20602;-88
2021/03/05 14:37:06;;;;;;;8.43;4.47;;;;;;;;;;4964783;28;20539;-88
2021/03/05 14:40:11;;;;;;;9.43;5.40;;;;;;;;;;4976686;28;20539;-88
2021/03/05 14:43:15;;;;;;;9.23;6.20;;;;;;;;;;4964960;28;20626;-89
2021/03/05 14:46:19;;;;;;;8.97;5.87;;;;;;;;;;4976294;28;20902;-88
2021/03/05 14:49:24;;;;;;;7.53;5.20;;;;;;;;;;4964637;28;20653;-88
2021/03/05 14:52:28;;;;;;;6.37;4.80;;;;;;;;;;4964631;28;20626;-89
2021/03/05 14:55:32;;;;;;;6.03;4.67;;;;;;;;;;4964947;28;20543;-89
2021/03/05 14:58:36;;;;;;;5.90;3.93;;;;;;;;;;4964949;28;20535;-89
2021/03/05 15:01:41;;;;;;;36.43;32.53;;;;;;;;;;4953992;28;20625;-89
2021/03/05 15:04:45;;;;;;;8.23;5.03;;;;;;;;;;4975885;28;20551;-89
2021/03/05 15:07:49;;;;;;;6.13;4.63;;;;;;;;;;4964680;28;20602;-89
2021/03/05 15:10:54;;;;;;;10.20;4.93;;;;;;;;;;4964740;28;20542;-89
2021/03/05 15:13:58;;;;;;;6.27;4.80;;;;;;;;;;4975689;28;20543;-89
2021/03/05 15:17:03;;;;;;;6.00;4.17;;;;;;;;;;4975644;28;20543;-89
2021/03/05 15:20:07;;;;;;;7.30;4.90;;;;;;;;;;4964467;28;20535;-89
2021/03/05 15:23:11;;;;;;;5.37;4.30;;;;;;;;;;4964461;28;20623;-89
2021/03/05 15:26:15;;;;;;;7.07;5.20;;;;;;;;;;4953607;28;20543;-89
2021/03/05 15:29:19;;;;;;;6.20;5.07;;;;;;;;;;4964562;28;20590;-90
2021/03/05 15:32:24;;;;;;;5.57;4.17;;;;;;;;;;4964228;28;20625;-89
2021/03/05 15:35:28;;;;;;;7.93;5.00;;;;;;;;;;4964189;28;20546;-89
2021/03/05 15:38:32;;;;;;;8.07;5.33;;;;;;;;;;4964784;28;20550;-90
2021/03/05 15:41:36;;;;;;;7.20;4.90;;;;;;;;;;4953093;28;20542;-90
2021/03/05 15:44:41;;;;;;;10.67;5.33;;;;;;;;;;4975334;28;20559;-89
2021/03/05 15:47:45;;;;;;;9.93;6.40;;;;;;;;;;4953030;28;20886;-89
2021/03/05 15:50:49;;;;;;;8.03;6.00;;;;;;;;;;4963969;28;20543;-89
2021/03/05 15:53:54;;;;;;;9.73;5.83;;;;;;;;;;4964161;28;20546;-89
2021/03/05 15:56:58;;;;;;;31.63;16.40;;;;;;;;;;4952881;28;20538;-89
2021/03/05 16:00:08;;;;;;;9.07;6.40;;;;;;;;;;4975065;28;20543;-89
2021/03/05 16:03:21;;;;;;;7.40;5.47;;;;;;;;;;4965162;28;20630;-89
2021/03/05 16:06:25;;;;;;;7.87;5.07;;;;;;;;;;4963761;28;20902;-90
2021/03/05 16:09:29;;;;;;;11.87;5.80;;;;;;;;;;4964162;28;21148;-89
2021/03/05 16:17:59;;;;;;;8.63;5.90;;;;;;;;;;4980631;28;20555;-89
2021/03/05 16:32:26;;;;;;;22.17;14.37;;;;;;;;;;4955787;29;20571;-87
2021/03/05 16:37:11;;;;;;;7.50;6.03;;;;;;;;;;4954290;29;20630;-87
2021/03/05 16:41:00;;;;;;;9.17;5.80;;;;;;;;;;4955455;29;21149;-87
2021/03/05 16:44:13;;;;;;;9.43;6.10;;;;;;;;;;4922725;29;20643;-87
2021/03/05 16:47:22;;;;;;;9.47;6.77;;;;;;;;;;4953891;28;20615;-87
2021/03/05 16:50:28;;;;;;;9.13;6.60;;;;;;;;;;4924157;29;20532;-85
2021/03/05 16:53:32;;;;;;;10.93;6.63;;;;;;;;;;4944287;29;20631;-85
2021/03/05 16:56:36;;;;;;;8.87;5.90;;;;;;;;;;4922254;29;20539;-87
2021/03/05 16:59:41;;;;;;;10.57;6.20;;;;;;;;;;4944030;29;20536;-87
2021/03/05 17:02:45;;;;;;;8.53;6.23;;;;;;;;;;4926138;29;20630;-85
2021/03/05 17:05:49;;;;;;;13.53;7.47;;;;;;;;;;4936830;29;20544;-86
2021/03/05 17:08:53;;;;;;;11.47;7.50;;;;;;;;;;4941387;28;20621;-85
2021/03/05 17:11:57;;;;;;;8.93;6.40;;;;;;;;;;4974566;28;20530;-86
2021/03/05 17:52:17;;;;;;;10.17;6.43;;;;;;;;;;5010487;28;20947;-88
2021/03/05 17:55:37;;;;;;;10.43;7.00;;;;;;;;;;4994498;28;21181;-88
2021/03/05 18:09:06;;;;;;;11.07;4.60;;;;;;;;;;4975354;28;21002;-87
2021/03/05 18:12:33;;;;;;;4.83;3.60;;;;;;;;;;4975994;28;20644;-89
2021/03/05 18:16:24;;;;;;;8.03;4.70;;;;;;;;;;4962711;28;21088;-88
2021/03/05 18:21:08;;;;;;;7.80;5.00;;;;;;;;;;4861691;29;20603;-88
2021/03/05 18:25:18;;;;;;;5.77;4.07;;;;;;;;;;4985593;28;20608;-88
2021/03/05 18:28:57;;;;;;;5.70;3.70;;;;;;;;;;4974427;28;20561;-88
2021/03/05 18:33:01;;;;;;;5.63;3.77;;;;;;;;;;4984449;28;21191;-88
2021/03/05 18:37:56;;;;;;;5.80;3.90;;;;;;;;;;5001794;28;20546;-88
2021/03/05 18:47:36;;;;;;;11.87;6.37;;;;;;;;;;4994512;28;21143;-88
2021/03/05 18:55:25;;;;;;;15.17;8.90;;;;;;;;;;4940730;29;20623;-87
2021/03/05 18:58:30;;;;;;;7.90;4.87;;;;;;;;;;4947248;28;20633;-88
2021/03/05 19:01:34;;;;;;;8.47;5.33;;;;;;;;;;4961630;28;21096;-88
2021/03/05 19:04:40;;;;;;;6.97;4.13;;;;;;;;;;4961832;28;20606;-88
2021/03/05 19:07:44;;;;;;;5.70;3.80;;;;;;;;;;4961784;28;20550;-87
2021/03/05 19:10:48;;;;;;;9.83;5.50;;;;;;;;;;4961479;28;20617;-87
2021/03/05 19:13:52;;;;;;;10.17;6.50;;;;;;;;;;4961998;28;20656;-88
2021/03/05 19:16:59;;;;;;;8.30;5.20;;;;;;;;;;4973102;28;20601;-88
2021/03/05 19:20:04;;;;;;;8.40;5.53;;;;;;;;;;4947162;28;20929;-88
2021/03/05 19:23:08;;;;;;;9.07;5.77;;;;;;;;;;4952798;28;20626;-87
2021/03/05 19:26:12;;;;;;;15.63;6.63;;;;;;;;;;4953028;28;20554;-88
2021/03/05 19:29:18;;;;;;;8.50;4.53;;;;;;;;;;4942518;28;20606;-88
2021/03/05 19:32:22;;;;;;;6.33;4.20;;;;;;;;;;4950842;28;20626;-88
2021/03/05 19:35:28;;;;;;;8.40;4.10;;;;;;;;;;4962822;28;20600;-88
2021/03/05 19:38:33;;;;;;;5.87;4.20;;;;;;;;;;4961020;28;20912;-86
2021/03/05 19:41:40;;;;;;;7.37;5.20;;;;;;;;;;4961648;28;20534;-86
2021/03/05 19:44:45;;;;;;;7.83;5.47;;;;;;;;;;4960609;28;20894;-87
2021/03/05 19:47:52;;;;;;;8.23;4.70;;;;;;;;;;4972174;28;20553;-87
2021/03/05 19:50:57;;;;;;;6.03;5.00;;;;;;;;;;4949615;28;20634;-87
2021/03/05 19:54:01;;;;;;;6.43;4.80;;;;;;;;;;4952341;28;20630;-87